Aeroporto :
LOGIN :

Iscrizione | Disclaimer

   EN    FR    IT 

 










Sommario :    VFR   VFR Marginale   IFR   IFR Intensivo   IFR Molto Intensivo
Visibilità : 
Base nubi : 
>= 8 km
>= 3000ft
5 / 8 km
1000 / 3000 ft
1500m / 5 km
500 / 1000 ft
800 / 1500m
200 / 500 ft
< 800m
< 200 ft
Simboli :   Temporali  Nebbia  Neve Forte  Precipitazioni Forti  Vento > 20 kt
SIGMETs :   Varie  Temporali  Ghiacco  Turbolenza  Onda orograficha  Ceneri Vulcaniche






- Altitudine del aeroporto : 443 ft
- Codice IATA : SQQ


EYSA - Siauliai

ULTIMO METAR :
  • 231520Z 22009KT 9999 FEW036 05/04 Q1010 R14L/29//95 R14R/29//95 BLU NOSIG

METARs OBSOLETI :
  • 231450Z 23010KT 9999 FEW018 SCT130 06/04 Q1009 R14L/29//95 R14R/29//95 BLU NOSIG
  • 231420Z 24011KT 210V270 9999 FEW019 SCT035 06/04 Q1009 R14L/29//95 R14R/29//95 BLU NOSIG
  • 231350Z 24012KT 9999 BKN039 07/04 Q1009 R14L/29//95 R14R/29//95 BLU NOSIG
  • 231320Z 24012KT 9999 SCT027 07/04 Q1009 R14L/29//95 R14R/29//95 BLU NOSIG
  • 231250Z 24013KT 9999 BKN023 07/04 Q1009 R14L/29//95 R14R/29//95 WHT TEMPO SCT025 BLU

TAF TAF EYSA
Valido dal 23 a 15 ore il 24 a 00 ore UTC


231407Z 2315/2324 25012G22KT 9000 BKN020
TEMPO 2315/2321 5000 SHRA SCT005 BKN015CB



MetMap, La meteo Aeronautica in un colpo d'occhio ! - Copyright ORBIFLY Dicembre 2007 - Disclaimer

ORBIFLY MET'MAP TEAM :

Programmazione e sviluppo : Alexandra Zaïnal
Concezione : Baudouin d'Aumeries
Aiuto per la programmazione : Marc-Olivier Méhu
Supporto tecnico e logistico : Manuel Goepfert
Aiuto per la traduzione : Arnaldo La Scala

Contatto : metmap@orbifly.com




FONTI E CREDITI :

   NOAA